sensor_id;sensor_type;location;lat;lon;timestamp;P1;durP1;ratioP1;P2;durP2;ratioP2
21315;SDS011;10817;55.820;13.030;2023-05-10T00:00:55;9.98;;;4.53;;
21315;SDS011;10817;55.820;13.030;2023-05-10T00:03:22;10.95;;;4.28;;
21315;SDS011;10817;55.820;13.030;2023-05-10T00:05:49;8.95;;;4.50;;
21315;SDS011;10817;55.820;13.030;2023-05-10T00:08:16;11.00;;;4.38;;
21315;SDS011;10817;55.820;13.030;2023-05-10T00:10:44;6.95;;;4.38;;
21315;SDS011;10817;55.820;13.030;2023-05-10T00:13:11;9.55;;;4.15;;
21315;SDS011;10817;55.820;13.030;2023-05-10T00:15:38;6.22;;;4.47;;
21315;SDS011;10817;55.820;13.030;2023-05-10T00:18:07;11.70;;;5.07;;
21315;SDS011;10817;55.820;13.030;2023-05-10T00:20:34;8.93;;;3.88;;
21315;SDS011;10817;55.820;13.030;2023-05-10T00:23:01;7.57;;;3.92;;
21315;SDS011;10817;55.820;13.030;2023-05-10T00:25:28;5.82;;;4.07;;
21315;SDS011;10817;55.820;13.030;2023-05-10T00:27:56;11.90;;;4.18;;
21315;SDS011;10817;55.820;13.030;2023-05-10T00:30:23;9.23;;;4.28;;
21315;SDS011;10817;55.820;13.030;2023-05-10T00:32:51;10.90;;;4.10;;
21315;SDS011;10817;55.820;13.030;2023-05-10T00:35:19;7.35;;;4.20;;
21315;SDS011;10817;55.820;13.030;2023-05-10T00:37:47;8.32;;;4.20;;
21315;SDS011;10817;55.820;13.030;2023-05-10T00:40:14;7.10;;;3.80;;
21315;SDS011;10817;55.820;13.030;2023-05-10T00:42:45;13.48;;;4.35;;
21315;SDS011;10817;55.820;13.030;2023-05-10T00:45:13;8.98;;;4.13;;
21315;SDS011;10817;55.820;13.030;2023-05-10T00:47:40;7.85;;;3.80;;
21315;SDS011;10817;55.820;13.030;2023-05-10T00:50:07;10.93;;;4.43;;
21315;SDS011;10817;55.820;13.030;2023-05-10T00:52:36;7.03;;;4.03;;
21315;SDS011;10817;55.820;13.030;2023-05-10T00:55:04;11.20;;;4.13;;
21315;SDS011;10817;55.820;13.030;2023-05-10T00:57:31;9.20;;;4.18;;
21315;SDS011;10817;55.820;13.030;2023-05-10T00:59:59;11.02;;;4.45;;
21315;SDS011;10817;55.820;13.030;2023-05-10T01:02:26;6.03;;;4.03;;
21315;SDS011;10817;55.820;13.030;2023-05-10T01:04:54;8.27;;;4.28;;
21315;SDS011;10817;55.820;13.030;2023-05-10T01:07:22;10.32;;;4.00;;
21315;SDS011;10817;55.820;13.030;2023-05-10T01:09:51;7.28;;;3.95;;
21315;SDS011;10817;55.820;13.030;2023-05-10T01:12:18;7.72;;;3.97;;
21315;SDS011;10817;55.820;13.030;2023-05-10T01:14:46;8.75;;;4.07;;
21315;SDS011;10817;55.820;13.030;2023-05-10T01:17:13;5.65;;;4.13;;
21315;SDS011;10817;55.820;13.030;2023-05-10T01:19:41;9.70;;;4.40;;
21315;SDS011;10817;55.820;13.030;2023-05-10T01:22:13;8.65;;;3.55;;
21315;SDS011;10817;55.820;13.030;2023-05-10T01:25:01;6.32;;;3.85;;
21315;SDS011;10817;55.820;13.030;2023-05-10T01:30:47;7.13;;;4.07;;
21315;SDS011;10817;55.820;13.030;2023-05-10T01:33:20;7.88;;;4.30;;
21315;SDS011;10817;55.820;13.030;2023-05-10T01:35:51;7.18;;;4.55;;
21315;SDS011;10817;55.820;13.030;2023-05-10T01:38:21;13.13;;;4.22;;
21315;SDS011;10817;55.820;13.030;2023-05-10T01:40:56;7.82;;;4.10;;
21315;SDS011;10817;55.820;13.030;2023-05-10T01:43:27;7.07;;;4.10;;
21315;SDS011;10817;55.820;13.030;2023-05-10T01:45:59;6.40;;;4.28;;
21315;SDS011;10817;55.820;13.030;2023-05-10T01:48:31;8.57;;;3.88;;
21315;SDS011;10817;55.820;13.030;2023-05-10T01:50:59;6.03;;;3.97;;
21315;SDS011;10817;55.820;13.030;2023-05-10T01:53:26;9.30;;;3.88;;
21315;SDS011;10817;55.820;13.030;2023-05-10T01:55:54;11.70;;;4.07;;
21315;SDS011;10817;55.820;13.030;2023-05-10T01:58:25;9.80;;;4.03;;
21315;SDS011;10817;55.820;13.030;2023-05-10T02:00:53;8.63;;;4.10;;
21315;SDS011;10817;55.820;13.030;2023-05-10T02:03:21;5.93;;;3.85;;
21315;SDS011;10817;55.820;13.030;2023-05-10T02:05:51;9.20;;;3.97;;
21315;SDS011;10817;55.820;13.030;2023-05-10T02:08:20;7.13;;;3.92;;
21315;SDS011;10817;55.820;13.030;2023-05-10T02:10:49;8.90;;;3.88;;
21315;SDS011;10817;55.820;13.030;2023-05-10T02:13:17;12.63;;;3.92;;
21315;SDS011;10817;55.820;13.030;2023-05-10T02:15:45;9.55;;;3.60;;
21315;SDS011;10817;55.820;13.030;2023-05-10T02:18:13;6.70;;;3.65;;
21315;SDS011;10817;55.820;13.030;2023-05-10T02:20:41;6.47;;;4.15;;
21315;SDS011;10817;55.820;13.030;2023-05-10T02:23:10;10.20;;;3.88;;
21315;SDS011;10817;55.820;13.030;2023-05-10T02:25:38;8.90;;;4.30;;
21315;SDS011;10817;55.820;13.030;2023-05-10T02:28:06;7.07;;;3.92;;
21315;SDS011;10817;55.820;13.030;2023-05-10T02:30:34;7.38;;;3.20;;
21315;SDS011;10817;55.820;13.030;2023-05-10T02:33:02;7.47;;;3.47;;
21315;SDS011;10817;55.820;13.030;2023-05-10T02:35:30;6.82;;;3.70;;
21315;SDS011;10817;55.820;13.030;2023-05-10T02:38:00;9.05;;;3.40;;
21315;SDS011;10817;55.820;13.030;2023-05-10T02:40:30;7.25;;;3.70;;
21315;SDS011;10817;55.820;13.030;2023-05-10T02:42:58;7.53;;;3.35;;
21315;SDS011;10817;55.820;13.030;2023-05-10T02:45:27;11.00;;;3.88;;
21315;SDS011;10817;55.820;13.030;2023-05-10T02:47:54;6.78;;;3.30;;
21315;SDS011;10817;55.820;13.030;2023-05-10T02:50:22;10.98;;;3.63;;
21315;SDS011;10817;55.820;13.030;2023-05-10T02:52:54;7.40;;;3.75;;
21315;SDS011;10817;55.820;13.030;2023-05-10T02:55:23;5.00;;;3.53;;
21315;SDS011;10817;55.820;13.030;2023-05-10T02:57:54;10.48;;;3.50;;
21315;SDS011;10817;55.820;13.030;2023-05-10T03:00:23;11.82;;;3.67;;
21315;SDS011;10817;55.820;13.030;2023-05-10T03:02:51;9.82;;;3.70;;
21315;SDS011;10817;55.820;13.030;2023-05-10T03:05:18;4.50;;;3.40;;
21315;SDS011;10817;55.820;13.030;2023-05-10T03:07:45;5.13;;;3.63;;
21315;SDS011;10817;55.820;13.030;2023-05-10T03:10:13;5.43;;;3.65;;
21315;SDS011;10817;55.820;13.030;2023-05-10T03:12:46;10.23;;;3.40;;
21315;SDS011;10817;55.820;13.030;2023-05-10T03:15:18;5.10;;;3.35;;
21315;SDS011;10817;55.820;13.030;2023-05-10T03:17:52;8.73;;;4.10;;
21315;SDS011;10817;55.820;13.030;2023-05-10T03:20:24;7.53;;;3.88;;
21315;SDS011;10817;55.820;13.030;2023-05-10T03:22:54;9.95;;;3.72;;
21315;SDS011;10817;55.820;13.030;2023-05-10T03:25:23;10.85;;;4.40;;
21315;SDS011;10817;55.820;13.030;2023-05-10T03:27:52;7.03;;;4.40;;
21315;SDS011;10817;55.820;13.030;2023-05-10T03:30:21;8.00;;;3.58;;
21315;SDS011;10817;55.820;13.030;2023-05-10T03:32:48;5.47;;;3.60;;
21315;SDS011;10817;55.820;13.030;2023-05-10T03:35:16;8.63;;;3.60;;
21315;SDS011;10817;55.820;13.030;2023-05-10T03:37:43;13.60;;;4.00;;
21315;SDS011;10817;55.820;13.030;2023-05-10T03:40:11;9.23;;;3.90;;
21315;SDS011;10817;55.820;13.030;2023-05-10T03:42:41;7.82;;;4.05;;
21315;SDS011;10817;55.820;13.030;2023-05-10T03:45:08;11.23;;;4.07;;
21315;SDS011;10817;55.820;13.030;2023-05-10T03:47:37;8.13;;;3.63;;
21315;SDS011;10817;55.820;13.030;2023-05-10T03:50:06;9.43;;;3.72;;
21315;SDS011;10817;55.820;13.030;2023-05-10T03:52:33;5.43;;;3.35;;
21315;SDS011;10817;55.820;13.030;2023-05-10T03:55:00;8.00;;;3.78;;
21315;SDS011;10817;55.820;13.030;2023-05-10T03:57:28;10.15;;;4.10;;
21315;SDS011;10817;55.820;13.030;2023-05-10T03:59:55;6.00;;;3.50;;
21315;SDS011;10817;55.820;13.030;2023-05-10T04:02:23;7.93;;;3.97;;
21315;SDS011;10817;55.820;13.030;2023-05-10T04:04:51;7.82;;;4.45;;
21315;SDS011;10817;55.820;13.030;2023-05-10T04:07:19;7.32;;;4.00;;
21315;SDS011;10817;55.820;13.030;2023-05-10T04:09:46;13.38;;;3.63;;
21315;SDS011;10817;55.820;13.030;2023-05-10T04:12:13;5.63;;;3.50;;
21315;SDS011;10817;55.820;13.030;2023-05-10T04:14:40;6.38;;;3.80;;
21315;SDS011;10817;55.820;13.030;2023-05-10T04:17:07;9.75;;;4.00;;
21315;SDS011;10817;55.820;13.030;2023-05-10T04:19:36;10.25;;;4.25;;
21315;SDS011;10817;55.820;13.030;2023-05-10T04:22:05;10.10;;;3.95;;
21315;SDS011;10817;55.820;13.030;2023-05-10T04:24:32;7.28;;;3.85;;
21315;SDS011;10817;55.820;13.030;2023-05-10T04:26:59;10.40;;;4.53;;
21315;SDS011;10817;55.820;13.030;2023-05-10T04:29:26;8.40;;;3.88;;
21315;SDS011;10817;55.820;13.030;2023-05-10T04:31:54;7.25;;;3.63;;
21315;SDS011;10817;55.820;13.030;2023-05-10T04:34:21;9.15;;;4.13;;
21315;SDS011;10817;55.820;13.030;2023-05-10T04:36:48;7.22;;;3.72;;
21315;SDS011;10817;55.820;13.030;2023-05-10T04:39:17;8.98;;;3.90;;
21315;SDS011;10817;55.820;13.030;2023-05-10T04:41:44;9.05;;;4.13;;
21315;SDS011;10817;55.820;13.030;2023-05-10T04:44:11;9.20;;;3.47;;
21315;SDS011;10817;55.820;13.030;2023-05-10T04:46:39;20.20;;;4.10;;
21315;SDS011;10817;55.820;13.030;2023-05-10T04:49:06;9.68;;;4.07;;
21315;SDS011;10817;55.820;13.030;2023-05-10T04:51:33;8.35;;;4.50;;
21315;SDS011;10817;55.820;13.030;2023-05-10T04:54:00;9.00;;;4.18;;
21315;SDS011;10817;55.820;13.030;2023-05-10T04:56:29;10.95;;;4.13;;
21315;SDS011;10817;55.820;13.030;2023-05-10T04:58:56;14.48;;;4.00;;
21315;SDS011;10817;55.820;13.030;2023-05-10T05:01:24;7.63;;;3.85;;
21315;SDS011;10817;55.820;13.030;2023-05-10T05:03:51;8.68;;;3.55;;
21315;SDS011;10817;55.820;13.030;2023-05-10T05:06:21;7.22;;;3.95;;
21315;SDS011;10817;55.820;13.030;2023-05-10T05:08:49;6.95;;;3.38;;
21315;SDS011;10817;55.820;13.030;2023-05-10T05:11:17;9.85;;;3.92;;
21315;SDS011;10817;55.820;13.030;2023-05-10T05:13:45;7.75;;;4.00;;
21315;SDS011;10817;55.820;13.030;2023-05-10T05:16:13;6.32;;;4.13;;
21315;SDS011;10817;55.820;13.030;2023-05-10T05:18:40;9.70;;;4.28;;
21315;SDS011;10817;55.820;13.030;2023-05-10T05:21:13;7.45;;;4.03;;
21315;SDS011;10817;55.820;13.030;2023-05-10T05:23:41;8.35;;;3.58;;
21315;SDS011;10817;55.820;13.030;2023-05-10T05:26:08;8.30;;;4.45;;
21315;SDS011;10817;55.820;13.030;2023-05-10T05:28:35;8.40;;;3.55;;
21315;SDS011;10817;55.820;13.030;2023-05-10T05:31:04;10.05;;;3.80;;
21315;SDS011;10817;55.820;13.030;2023-05-10T05:33:32;7.82;;;3.75;;
21315;SDS011;10817;55.820;13.030;2023-05-10T05:36:00;10.68;;;3.50;;
21315;SDS011;10817;55.820;13.030;2023-05-10T05:38:27;11.52;;;4.63;;
21315;SDS011;10817;55.820;13.030;2023-05-10T05:40:54;13.40;;;3.72;;
21315;SDS011;10817;55.820;13.030;2023-05-10T05:43:21;8.88;;;3.55;;
21315;SDS011;10817;55.820;13.030;2023-05-10T05:45:49;10.68;;;3.78;;
21315;SDS011;10817;55.820;13.030;2023-05-10T05:48:17;8.38;;;3.95;;
21315;SDS011;10817;55.820;13.030;2023-05-10T05:50:45;8.88;;;3.85;;
21315;SDS011;10817;55.820;13.030;2023-05-10T05:53:12;6.90;;;3.85;;
21315;SDS011;10817;55.820;13.030;2023-05-10T05:55:39;8.07;;;3.65;;
21315;SDS011;10817;55.820;13.030;2023-05-10T05:58:06;6.40;;;3.55;;
21315;SDS011;10817;55.820;13.030;2023-05-10T06:00:34;9.63;;;4.13;;
21315;SDS011;10817;55.820;13.030;2023-05-10T06:03:01;6.47;;;4.15;;
21315;SDS011;10817;55.820;13.030;2023-05-10T06:05:29;9.85;;;3.60;;
21315;SDS011;10817;55.820;13.030;2023-05-10T06:07:58;7.82;;;4.07;;
21315;SDS011;10817;55.820;13.030;2023-05-10T06:10:26;8.10;;;4.05;;
21315;SDS011;10817;55.820;13.030;2023-05-10T06:12:53;11.57;;;3.88;;
21315;SDS011;10817;55.820;13.030;2023-05-10T06:15:20;6.72;;;4.05;;
21315;SDS011;10817;55.820;13.030;2023-05-10T06:17:47;9.45;;;3.80;;
21315;SDS011;10817;55.820;13.030;2023-05-10T06:20:15;10.32;;;3.80;;
21315;SDS011;10817;55.820;13.030;2023-05-10T06:22:44;6.80;;;3.97;;
21315;SDS011;10817;55.820;13.030;2023-05-10T06:25:11;9.85;;;3.88;;
21315;SDS011;10817;55.820;13.030;2023-05-10T06:27:39;8.35;;;3.55;;
21315;SDS011;10817;55.820;13.030;2023-05-10T06:30:07;12.13;;;4.97;;
21315;SDS011;10817;55.820;13.030;2023-05-10T06:32:34;8.77;;;4.40;;
21315;SDS011;10817;55.820;13.030;2023-05-10T06:35:01;7.63;;;3.67;;
21315;SDS011;10817;55.820;13.030;2023-05-10T06:37:29;7.93;;;4.10;;
21315;SDS011;10817;55.820;13.030;2023-05-10T06:39:57;8.20;;;3.60;;
21315;SDS011;10817;55.820;13.030;2023-05-10T06:42:24;10.38;;;3.78;;
21315;SDS011;10817;55.820;13.030;2023-05-10T06:44:52;7.70;;;4.30;;
21315;SDS011;10817;55.820;13.030;2023-05-10T06:47:19;8.05;;;4.28;;
21315;SDS011;10817;55.820;13.030;2023-05-10T06:49:47;6.50;;;3.75;;
21315;SDS011;10817;55.820;13.030;2023-05-10T06:52:14;7.75;;;4.00;;
21315;SDS011;10817;55.820;13.030;2023-05-10T06:54:41;8.25;;;3.75;;
21315;SDS011;10817;55.820;13.030;2023-05-10T06:57:10;6.35;;;3.40;;
21315;SDS011;10817;55.820;13.030;2023-05-10T06:59:37;4.80;;;3.50;;
21315;SDS011;10817;55.820;13.030;2023-05-10T07:02:04;8.65;;;3.70;;
21315;SDS011;10817;55.820;13.030;2023-05-10T07:04:32;9.65;;;4.05;;
21315;SDS011;10817;55.820;13.030;2023-05-10T07:06:59;7.80;;;3.92;;
21315;SDS011;10817;55.820;13.030;2023-05-10T07:09:26;8.23;;;3.83;;
21315;SDS011;10817;55.820;13.030;2023-05-10T07:11:53;7.72;;;4.03;;
21315;SDS011;10817;55.820;13.030;2023-05-10T07:14:24;9.18;;;3.78;;
21315;SDS011;10817;55.820;13.030;2023-05-10T07:16:51;9.85;;;4.70;;
21315;SDS011;10817;55.820;13.030;2023-05-10T07:19:18;11.50;;;3.83;;
21315;SDS011;10817;55.820;13.030;2023-05-10T07:21:45;9.82;;;4.03;;
21315;SDS011;10817;55.820;13.030;2023-05-10T07:24:12;7.50;;;3.85;;
21315;SDS011;10817;55.820;13.030;2023-05-10T07:26:40;11.65;;;3.63;;
21315;SDS011;10817;55.820;13.030;2023-05-10T07:29:07;9.07;;;3.72;;
21315;SDS011;10817;55.820;13.030;2023-05-10T07:31:36;9.55;;;4.10;;
21315;SDS011;10817;55.820;13.030;2023-05-10T07:34:03;8.15;;;4.00;;
21315;SDS011;10817;55.820;13.030;2023-05-10T07:36:30;6.35;;;3.83;;
21315;SDS011;10817;55.820;13.030;2023-05-10T07:38:57;10.90;;;4.22;;
21315;SDS011;10817;55.820;13.030;2023-05-10T07:41:25;6.00;;;3.42;;
21315;SDS011;10817;55.820;13.030;2023-05-10T07:43:52;10.95;;;4.95;;
21315;SDS011;10817;55.820;13.030;2023-05-10T07:46:19;6.85;;;3.80;;
21315;SDS011;10817;55.820;13.030;2023-05-10T07:48:48;9.02;;;3.92;;
21315;SDS011;10817;55.820;13.030;2023-05-10T07:51:15;13.85;;;3.95;;
21315;SDS011;10817;55.820;13.030;2023-05-10T07:53:42;11.48;;;3.75;;
21315;SDS011;10817;55.820;13.030;2023-05-10T07:56:22;15.38;;;3.70;;
21315;SDS011;10817;55.820;13.030;2023-05-10T07:58:50;10.35;;;3.80;;
21315;SDS011;10817;55.820;13.030;2023-05-10T08:01:17;9.93;;;3.50;;
21315;SDS011;10817;55.820;13.030;2023-05-10T08:03:44;12.48;;;3.60;;
21315;SDS011;10817;55.820;13.030;2023-05-10T08:06:13;6.25;;;3.10;;
21315;SDS011;10817;55.820;13.030;2023-05-10T08:08:40;13.65;;;4.00;;
21315;SDS011;10817;55.820;13.030;2023-05-10T08:11:08;10.20;;;3.92;;
21315;SDS011;10817;55.820;13.030;2023-05-10T08:13:35;6.78;;;3.50;;
21315;SDS011;10817;55.820;13.030;2023-05-10T08:16:02;6.40;;;3.60;;
21315;SDS011;10817;55.820;13.030;2023-05-10T08:18:29;6.55;;;3.70;;
21315;SDS011;10817;55.820;13.030;2023-05-10T08:20:57;6.15;;;3.67;;
21315;SDS011;10817;55.820;13.030;2023-05-10T08:23:25;8.10;;;3.70;;
21315;SDS011;10817;55.820;13.030;2023-05-10T08:25:53;4.53;;;3.22;;
21315;SDS011;10817;55.820;13.030;2023-05-10T08:28:20;14.70;;;3.75;;
21315;SDS011;10817;55.820;13.030;2023-05-10T08:30:47;8.45;;;3.90;;
21315;SDS011;10817;55.820;13.030;2023-05-10T08:33:14;10.07;;;3.92;;
21315;SDS011;10817;55.820;13.030;2023-05-10T08:35:41;6.32;;;3.85;;
21315;SDS011;10817;55.820;13.030;2023-05-10T08:38:08;9.30;;;3.38;;
21315;SDS011;10817;55.820;13.030;2023-05-10T08:40:37;8.27;;;3.90;;
21315;SDS011;10817;55.820;13.030;2023-05-10T08:43:05;9.38;;;3.30;;
21315;SDS011;10817;55.820;13.030;2023-05-10T08:45:37;6.38;;;3.50;;
21315;SDS011;10817;55.820;13.030;2023-05-10T08:48:05;9.77;;;3.50;;
21315;SDS011;10817;55.820;13.030;2023-05-10T08:50:32;7.20;;;3.78;;
21315;SDS011;10817;55.820;13.030;2023-05-10T08:53:00;6.10;;;3.20;;
21315;SDS011;10817;55.820;13.030;2023-05-10T08:55:31;9.35;;;3.28;;
21315;SDS011;10817;55.820;13.030;2023-05-10T08:58:00;9.98;;;3.88;;
21315;SDS011;10817;55.820;13.030;2023-05-10T09:00:27;6.93;;;3.85;;
21315;SDS011;10817;55.820;13.030;2023-05-10T09:02:55;8.77;;;3.65;;
21315;SDS011;10817;55.820;13.030;2023-05-10T09:05:22;8.98;;;3.60;;
21315;SDS011;10817;55.820;13.030;2023-05-10T09:07:50;7.40;;;3.30;;
21315;SDS011;10817;55.820;13.030;2023-05-10T09:10:17;12.10;;;3.40;;
21315;SDS011;10817;55.820;13.030;2023-05-10T09:12:44;5.78;;;3.55;;
21315;SDS011;10817;55.820;13.030;2023-05-10T09:15:13;8.00;;;3.72;;
21315;SDS011;10817;55.820;13.030;2023-05-10T09:17:41;5.95;;;3.22;;
21315;SDS011;10817;55.820;13.030;2023-05-10T09:20:09;9.70;;;3.30;;
21315;SDS011;10817;55.820;13.030;2023-05-10T09:22:41;10.90;;;4.00;;
21315;SDS011;10817;55.820;13.030;2023-05-10T09:25:14;6.85;;;3.40;;
21315;SDS011;10817;55.820;13.030;2023-05-10T09:27:44;8.57;;;3.40;;
21315;SDS011;10817;55.820;13.030;2023-05-10T09:30:16;6.57;;;2.90;;
21315;SDS011;10817;55.820;13.030;2023-05-10T09:32:44;8.75;;;3.33;;
21315;SDS011;10817;55.820;13.030;2023-05-10T09:35:12;6.38;;;3.00;;
21315;SDS011;10817;55.820;13.030;2023-05-10T09:37:40;11.30;;;3.13;;
21315;SDS011;10817;55.820;13.030;2023-05-10T09:40:08;11.57;;;3.00;;
21315;SDS011;10817;55.820;13.030;2023-05-10T09:42:37;5.32;;;2.83;;
21315;SDS011;10817;55.820;13.030;2023-05-10T09:45:05;11.30;;;3.63;;
21315;SDS011;10817;55.820;13.030;2023-05-10T09:47:35;7.43;;;3.17;;
21315;SDS011;10817;55.820;13.030;2023-05-10T09:50:02;4.15;;;2.55;;
21315;SDS011;10817;55.820;13.030;2023-05-10T09:52:30;7.10;;;2.95;;
21315;SDS011;10817;55.820;13.030;2023-05-10T09:54:57;6.63;;;3.03;;
21315;SDS011;10817;55.820;13.030;2023-05-10T09:57:25;5.70;;;2.60;;
21315;SDS011;10817;55.820;13.030;2023-05-10T09:59:52;6.47;;;2.50;;
21315;SDS011;10817;55.820;13.030;2023-05-10T10:02:20;11.50;;;3.50;;
21315;SDS011;10817;55.820;13.030;2023-05-10T10:04:50;4.75;;;2.53;;
21315;SDS011;10817;55.820;13.030;2023-05-10T10:07:21;5.88;;;2.70;;
21315;SDS011;10817;55.820;13.030;2023-05-10T10:09:49;15.23;;;3.10;;
21315;SDS011;10817;55.820;13.030;2023-05-10T10:12:16;6.70;;;2.70;;
21315;SDS011;10817;55.820;13.030;2023-05-10T10:14:45;6.43;;;2.88;;
21315;SDS011;10817;55.820;13.030;2023-05-10T10:17:13;5.35;;;2.90;;
21315;SDS011;10817;55.820;13.030;2023-05-10T10:19:40;9.63;;;3.05;;
21315;SDS011;10817;55.820;13.030;2023-05-10T10:22:09;6.43;;;2.90;;
21315;SDS011;10817;55.820;13.030;2023-05-10T10:24:37;8.70;;;2.85;;
21315;SDS011;10817;55.820;13.030;2023-05-10T10:27:12;8.88;;;2.65;;
21315;SDS011;10817;55.820;13.030;2023-05-10T10:29:45;7.65;;;2.55;;
21315;SDS011;10817;55.820;13.030;2023-05-10T10:32:18;10.52;;;2.50;;
21315;SDS011;10817;55.820;13.030;2023-05-10T10:34:47;8.48;;;2.60;;
21315;SDS011;10817;55.820;13.030;2023-05-10T10:37:16;6.13;;;2.40;;
21315;SDS011;10817;55.820;13.030;2023-05-10T10:39:43;7.32;;;2.30;;
21315;SDS011;10817;55.820;13.030;2023-05-10T10:42:10;5.25;;;2.50;;
21315;SDS011;10817;55.820;13.030;2023-05-10T10:44:38;5.80;;;2.60;;
21315;SDS011;10817;55.820;13.030;2023-05-10T10:47:08;4.72;;;2.10;;
21315;SDS011;10817;55.820;13.030;2023-05-10T10:49:43;5.38;;;2.13;;
21315;SDS011;10817;55.820;13.030;2023-05-10T10:52:18;6.18;;;2.75;;
21315;SDS011;10817;55.820;13.030;2023-05-10T10:54:49;11.00;;;1.98;;
21315;SDS011;10817;55.820;13.030;2023-05-10T10:57:18;2.97;;;2.35;;
21315;SDS011;10817;55.820;13.030;2023-05-10T10:59:47;16.77;;;2.38;;
21315;SDS011;10817;55.820;13.030;2023-05-10T11:02:32;4.78;;;2.35;;
21315;SDS011;10817;55.820;13.030;2023-05-10T11:04:59;6.05;;;2.15;;
21315;SDS011;10817;55.820;13.030;2023-05-10T11:07:28;4.50;;;2.10;;
21315;SDS011;10817;55.820;13.030;2023-05-10T11:09:55;3.08;;;2.08;;
21315;SDS011;10817;55.820;13.030;2023-05-10T11:12:30;4.60;;;2.00;;
21315;SDS011;10817;55.820;13.030;2023-05-10T11:14:57;2.90;;;1.88;;
21315;SDS011;10817;55.820;13.030;2023-05-10T11:17:26;4.43;;;1.70;;
21315;SDS011;10817;55.820;13.030;2023-05-10T11:20:06;5.25;;;1.67;;
21315;SDS011;10817;55.820;13.030;2023-05-10T11:25:18;7.30;;;2.20;;
21315;SDS011;10817;55.820;13.030;2023-05-10T11:27:46;4.97;;;1.73;;
21315;SDS011;10817;55.820;13.030;2023-05-10T11:30:14;3.70;;;1.70;;
21315;SDS011;10817;55.820;13.030;2023-05-10T11:32:41;7.35;;;1.90;;
21315;SDS011;10817;55.820;13.030;2023-05-10T11:35:09;3.97;;;2.10;;
21315;SDS011;10817;55.820;13.030;2023-05-10T11:37:37;11.52;;;1.55;;
21315;SDS011;10817;55.820;13.030;2023-05-10T11:40:07;2.47;;;1.52;;
21315;SDS011;10817;55.820;13.030;2023-05-10T11:42:37;4.82;;;2.08;;
21315;SDS011;10817;55.820;13.030;2023-05-10T11:45:05;4.28;;;1.58;;
21315;SDS011;10817;55.820;13.030;2023-05-10T11:47:32;5.68;;;1.83;;
21315;SDS011;10817;55.820;13.030;2023-05-10T11:50:00;4.47;;;1.70;;
21315;SDS011;10817;55.820;13.030;2023-05-10T11:52:28;6.45;;;1.40;;
21315;SDS011;10817;55.820;13.030;2023-05-10T11:54:55;6.68;;;1.40;;
21315;SDS011;10817;55.820;13.030;2023-05-10T11:57:25;5.13;;;1.60;;
21315;SDS011;10817;55.820;13.030;2023-05-10T11:59:55;4.90;;;1.50;;
21315;SDS011;10817;55.820;13.030;2023-05-10T12:02:23;5.90;;;1.60;;
21315;SDS011;10817;55.820;13.030;2023-05-10T12:04:50;3.40;;;1.80;;
21315;SDS011;10817;55.820;13.030;2023-05-10T12:07:18;2.63;;;1.30;;
21315;SDS011;10817;55.820;13.030;2023-05-10T12:12:27;4.75;;;1.60;;
21315;SDS011;10817;55.820;13.030;2023-05-10T12:15:03;10.75;;;2.33;;
21315;SDS011;10817;55.820;13.030;2023-05-10T12:17:31;6.13;;;1.80;;
21315;SDS011;10817;55.820;13.030;2023-05-10T12:19:59;2.20;;;1.60;;
21315;SDS011;10817;55.820;13.030;2023-05-10T12:22:26;7.68;;;1.70;;
21315;SDS011;10817;55.820;13.030;2023-05-10T12:24:54;7.88;;;1.60;;
21315;SDS011;10817;55.820;13.030;2023-05-10T12:27:21;7.65;;;1.90;;
21315;SDS011;10817;55.820;13.030;2023-05-10T12:29:48;9.05;;;1.80;;
21315;SDS011;10817;55.820;13.030;2023-05-10T12:32:16;4.93;;;1.95;;
21315;SDS011;10817;55.820;13.030;2023-05-10T12:34:43;7.65;;;1.88;;
21315;SDS011;10817;55.820;13.030;2023-05-10T12:37:14;10.18;;;1.70;;
21315;SDS011;10817;55.820;13.030;2023-05-10T12:39:42;5.20;;;1.85;;
21315;SDS011;10817;55.820;13.030;2023-05-10T12:42:11;4.13;;;1.60;;
21315;SDS011;10817;55.820;13.030;2023-05-10T12:44:38;7.47;;;1.75;;
21315;SDS011;10817;55.820;13.030;2023-05-10T12:47:06;4.18;;;1.60;;
21315;SDS011;10817;55.820;13.030;2023-05-10T12:49:34;3.42;;;1.50;;
21315;SDS011;10817;55.820;13.030;2023-05-10T12:52:01;7.30;;;1.70;;
21315;SDS011;10817;55.820;13.030;2023-05-10T12:54:29;2.90;;;1.70;;
21315;SDS011;10817;55.820;13.030;2023-05-10T12:56:56;6.68;;;1.55;;
21315;SDS011;10817;55.820;13.030;2023-05-10T12:59:23;5.30;;;1.73;;
21315;SDS011;10817;55.820;13.030;2023-05-10T13:01:50;5.22;;;1.70;;
21315;SDS011;10817;55.820;13.030;2023-05-10T13:04:17;4.68;;;1.60;;
21315;SDS011;10817;55.820;13.030;2023-05-10T13:06:46;7.22;;;1.67;;
21315;SDS011;10817;55.820;13.030;2023-05-10T13:09:13;6.63;;;1.60;;
21315;SDS011;10817;55.820;13.030;2023-05-10T13:11:41;5.55;;;2.08;;
21315;SDS011;10817;55.820;13.030;2023-05-10T13:14:08;3.13;;;1.80;;
21315;SDS011;10817;55.820;13.030;2023-05-10T13:16:36;6.15;;;1.90;;
21315;SDS011;10817;55.820;13.030;2023-05-10T13:19:03;9.05;;;2.03;;
21315;SDS011;10817;55.820;13.030;2023-05-10T13:21:30;9.98;;;2.20;;
21315;SDS011;10817;55.820;13.030;2023-05-10T13:23:58;4.85;;;2.00;;
21315;SDS011;10817;55.820;13.030;2023-05-10T13:26:26;8.77;;;1.58;;
21315;SDS011;10817;55.820;13.030;2023-05-10T13:28:53;11.82;;;2.13;;
21315;SDS011;10817;55.820;13.030;2023-05-10T13:31:21;2.90;;;1.88;;
21315;SDS011;10817;55.820;13.030;2023-05-10T13:33:48;5.82;;;2.05;;
21315;SDS011;10817;55.820;13.030;2023-05-10T13:36:15;3.72;;;2.08;;
21315;SDS011;10817;55.820;13.030;2023-05-10T13:38:42;3.45;;;1.80;;
21315;SDS011;10817;55.820;13.030;2023-05-10T13:41:11;5.82;;;2.22;;
21315;SDS011;10817;55.820;13.030;2023-05-10T13:43:38;4.85;;;1.95;;
21315;SDS011;10817;55.820;13.030;2023-05-10T13:46:05;4.55;;;2.20;;
21315;SDS011;10817;55.820;13.030;2023-05-10T13:48:33;7.68;;;2.22;;
21315;SDS011;10817;55.820;13.030;2023-05-10T13:51:01;3.65;;;2.03;;
21315;SDS011;10817;55.820;13.030;2023-05-10T13:53:29;4.43;;;1.63;;
21315;SDS011;10817;55.820;13.030;2023-05-10T13:55:56;2.75;;;1.83;;
21315;SDS011;10817;55.820;13.030;2023-05-10T13:58:25;8.85;;;2.03;;
21315;SDS011;10817;55.820;13.030;2023-05-10T14:00:52;3.45;;;1.80;;
21315;SDS011;10817;55.820;13.030;2023-05-10T14:03:19;3.83;;;2.08;;
21315;SDS011;10817;55.820;13.030;2023-05-10T14:05:46;5.13;;;1.95;;
21315;SDS011;10817;55.820;13.030;2023-05-10T14:08:13;7.00;;;2.10;;
21315;SDS011;10817;55.820;13.030;2023-05-10T14:10:40;5.03;;;1.80;;
21315;SDS011;10817;55.820;13.030;2023-05-10T14:13:08;7.07;;;1.80;;
21315;SDS011;10817;55.820;13.030;2023-05-10T14:15:36;11.52;;;1.92;;
21315;SDS011;10817;55.820;13.030;2023-05-10T14:18:04;6.78;;;1.88;;
21315;SDS011;10817;55.820;13.030;2023-05-10T14:20:31;4.72;;;1.88;;
21315;SDS011;10817;55.820;13.030;2023-05-10T14:22:58;5.68;;;1.95;;
21315;SDS011;10817;55.820;13.030;2023-05-10T14:25:26;5.07;;;2.03;;
21315;SDS011;10817;55.820;13.030;2023-05-10T14:27:53;5.05;;;1.90;;
21315;SDS011;10817;55.820;13.030;2023-05-10T14:30:21;2.80;;;1.67;;
21315;SDS011;10817;55.820;13.030;2023-05-10T14:32:49;8.60;;;2.00;;
21315;SDS011;10817;55.820;13.030;2023-05-10T14:35:19;5.68;;;1.77;;
21315;SDS011;10817;55.820;13.030;2023-05-10T14:37:46;8.48;;;1.90;;
21315;SDS011;10817;55.820;13.030;2023-05-10T14:40:13;5.28;;;1.80;;
21315;SDS011;10817;55.820;13.030;2023-05-10T14:42:42;13.27;;;2.70;;
21315;SDS011;10817;55.820;13.030;2023-05-10T14:45:09;3.70;;;1.65;;